Time;durP1;ratioP1;P1;durP2;ratioP2;P2;SDS_P1;SDS_P2;PMS_P1;PMS_P2;Temp;Humidity;BMP_temperature;BMP_pressure;BME280_temperature;BME280_humidity;BME280_pressure;Samples;Min_cycle;Max_cycle;Signal;HPM_P1;HPM_P2
2021/09/26 12:21:53;;;;;;;5.20;3.30;;;28.20;99.90;;;;;;1790883;76;21228;-86
2021/09/26 12:24:54;;;;;;;;;;;;;;;;;;;;;
2021/09/26 12:27:35;;;;;;;;;;;28.10;99.90;;;;;;1825111;78;21202;-88
2021/09/26 12:30:29;;;;;;;5.40;2.20;;;28.00;99.90;;;;;;1807393;79;20179;-86
2021/09/26 12:33:02;;;;;;;7.30;1.80;;;28.00;99.90;;;;;;1810064;79;21135;-87
2021/09/26 12:35:35;;;;;;;4.20;1.92;;;27.90;99.90;;;;;;1800155;79;21135;-88
2021/09/26 12:38:11;;;;;;;4.55;2.05;;;27.90;99.90;;;;;;1797463;80;21123;-87
2021/09/26 12:40:44;;;;;;;3.93;1.70;;;27.90;99.90;;;;;;1796303;80;21180;-87
2021/09/26 12:43:19;;;;;;;6.58;2.00;;;27.80;99.90;;;;;;1794905;79;21288;-87
2021/09/26 12:45:50;;;;;;;5.08;2.15;;;27.80;99.90;;;;;;1795548;80;21132;-84
2021/09/26 12:51:37;;;;;;;7.10;4.05;;;27.70;99.90;;;;;;1781270;80;21171;-88
2021/09/26 12:57:44;;;;;;;6.08;2.90;;;27.50;99.90;;;;;;1981098;70;21068;-87
2021/09/26 13:00:33;;;;;;;6.10;3.37;;;27.40;99.90;;;;;;1959986;71;21080;-86
2021/09/26 13:03:09;;;;;;;3.62;2.22;;;27.30;99.90;;;;;;1887725;74;21110;-86
2021/09/26 13:06:29;;;;;;;;;;;;;;;;;;;;;
2021/09/26 13:09:11;;;;;;;4.45;2.30;;;27.20;99.90;;;;;;1781308;74;21184;-92
2021/09/26 13:11:42;;;;;;;5.00;2.43;;;27.10;99.90;;;;;;1932387;74;21124;-93
2021/09/26 13:14:21;;;;;;;3.62;1.72;;;27.10;99.90;;;;;;1932819;73;21132;-92
2021/09/26 13:17:02;;;;;;;4.12;2.00;;;27.00;99.90;;;;;;1853230;77;22749;-91
2021/09/26 13:19:52;;;;;;;4.00;1.77;;;27.00;99.90;;;;;;1872289;76;21172;-90
2021/09/26 13:22:27;;;;;;;4.60;1.42;;;27.00;99.90;;;;;;1839568;78;21166;-89
2021/09/26 13:25:10;;;;;;;;;;;;;;;;;;;;;
2021/09/26 13:27:45;;;;;;;4.20;1.90;;;26.90;99.90;;;;;;1902859;75;21208;-92
2021/09/26 13:30:35;;;;;;;7.15;1.72;;;26.80;99.90;;;;;;1900626;74;21165;-90
2021/09/26 13:33:21;;;;;;;3.13;1.57;;;26.80;99.90;;;;;;1896258;75;21180;-90
2021/09/26 13:36:09;;;;;;;2.45;1.30;;;26.70;99.90;;;;;;1878440;74;21872;-92
2021/09/26 13:39:00;;;;;;;5.37;1.45;;;26.60;99.90;;;;;;1833698;78;21204;-91
2021/09/26 13:41:34;;;;;;;4.67;1.75;;;26.60;99.90;;;;;;1825429;79;21163;-92
2021/09/26 13:44:14;;;;;;;3.45;1.40;;;26.60;99.90;;;;;;1826778;79;21218;-91
2021/09/26 13:49:29;;;;;;;4.17;1.32;;;26.60;99.90;;;;;;1792566;80;21198;-91
2021/09/26 13:52:00;;;;;;;2.87;1.20;;;26.50;99.90;;;;;;1797274;78;21233;-91
2021/09/26 13:54:57;;;;;;;2.85;1.15;;;26.50;99.90;;;;;;1766574;80;21229;-92
2021/09/26 13:57:33;;;;;;;3.55;1.15;;;26.50;99.90;;;;;;1759208;80;21247;-93
2021/09/26 14:17:16;;;;;;;10.50;1.40;;;26.30;99.90;;;;;;1922397;71;21065;-90
2021/09/26 14:19:48;;;;;;;6.37;1.40;;;26.30;99.90;;;;;;1912078;74;21108;-90
2021/09/26 14:22:22;;;;;;;4.83;1.45;;;26.30;99.90;;;;;;1906509;74;21242;-89
2021/09/26 14:24:54;;;;;;;7.47;2.02;;;26.20;99.90;;;;;;1858510;76;21147;-90
2021/09/26 14:27:27;;;;;;;4.40;1.25;;;26.20;99.90;;;;;;1841816;76;21231;-89
2021/09/26 14:29:58;;;;;;;5.25;1.65;;;26.20;99.90;;;;;;1913526;74;21151;-90
2021/09/26 14:32:29;;;;;;;3.08;1.32;;;26.10;99.90;;;;;;1901031;74;21151;-90
2021/09/26 14:35:11;;;;;;;9.05;1.75;;;26.20;99.90;;;;;;1899369;74;21216;-90
2021/09/26 14:38:01;;;;;;;;;;;26.10;99.90;;;;;;1907362;74;21181;-92
2021/09/26 14:40:27;;;;;;;5.15;1.77;;;26.10;99.90;;;;;;1925435;73;20124;-91
2021/09/26 14:43:24;;;;;;;;;;;;;;;;;;;;;
2021/09/26 14:46:12;;;;;;;5.03;1.52;;;26.10;99.90;;;;;;1889251;74;21073;-89
2021/09/26 14:48:39;;;;;;;6.20;1.77;;;26.10;99.90;;;;;;1894181;73;21192;-91
2021/09/26 14:51:16;;;;;;;5.40;1.82;;;26.10;99.90;;;;;;1900019;73;21143;-89
2021/09/26 14:54:14;;;;;;;;;;;;;;;;;;;;;
2021/09/26 14:56:39;;;;;;;6.90;1.85;;;26.00;99.90;;;;;;1854280;75;21686;-92
2021/09/26 14:59:28;;;;;;;6.22;2.20;;;26.00;99.90;;;;;;1858701;75;21587;-90
2021/09/26 15:01:59;;;;;;;7.15;1.87;;;26.00;99.90;;;;;;1909945;74;21241;-89
2021/09/26 15:04:35;;;;;;;4.92;1.70;;;26.00;99.90;;;;;;1903146;75;21218;-89
2021/09/26 15:07:05;;;;;;;3.67;1.70;;;25.90;99.90;;;;;;1906917;74;21082;-89
2021/09/26 15:09:42;;;;;;;4.58;1.75;;;25.90;99.90;;;;;;1896289;74;21101;-88
2021/09/26 15:12:17;;;;;;;4.37;1.87;;;25.90;99.90;;;;;;1938515;74;21132;-90
2021/09/26 15:15:03;;;;;;;;;;;;;;;;;;;;;
2021/09/26 15:17:36;;;;;;;4.17;1.98;;;25.90;99.90;;;;;;1899700;74;21245;-89
2021/09/26 15:20:08;;;;;;;5.65;2.30;;;25.90;99.90;;;;;;1914453;74;21132;-89
2021/09/26 15:22:40;;;;;;;5.12;1.90;;;25.90;99.90;;;;;;1896449;74;21156;-89
2021/09/26 15:25:16;;;;;;;5.40;1.90;;;26.00;99.90;;;;;;1902834;74;21588;-91
2021/09/26 15:27:48;;;;;;;5.00;2.15;;;26.00;99.90;;;;;;1904607;74;21120;-89
2021/09/26 15:30:19;;;;;;;3.20;1.85;;;26.00;99.90;;;;;;1900993;74;21188;-89
2021/09/26 15:32:51;;;;;;;5.92;2.10;;;26.00;99.90;;;;;;1904729;74;21118;-89
2021/09/26 15:35:58;;;;;;;5.42;1.82;;;25.90;99.90;;;;;;1811389;77;21280;-89
2021/09/26 15:38:17;;;;;;;;;;;25.90;99.90;;;;;;1779944;78;21222;-91
2021/09/26 15:43:56;;;;;;;6.62;2.20;;;25.80;99.90;;;;;;1971481;71;22154;-90
2021/09/26 15:46:28;;;;;;;4.28;2.15;;;25.70;99.90;;;;;;1924689;73;21142;-88
2021/09/26 15:49:03;;;;;;;5.95;2.25;;;25.60;99.90;;;;;;1934227;72;21140;-88
2021/09/26 15:51:36;;;;;;;7.20;2.22;;;25.50;99.90;;;;;;1936878;73;21226;-90
2021/09/26 15:54:07;;;;;;;6.62;2.15;;;25.50;99.90;;;;;;1952698;72;21084;-89
2021/09/26 15:56:38;;;;;;;5.58;2.37;;;25.40;99.90;;;;;;1936835;73;21062;-89
2021/09/26 15:59:09;;;;;;;6.30;2.00;;;25.40;99.90;;;;;;1936030;72;21516;-89
2021/09/26 16:01:42;;;;;;;6.83;2.05;;;25.40;99.90;;;;;;1948257;73;21140;-89
2021/09/26 16:04:17;;;;;;;6.85;2.12;;;25.40;99.90;;;;;;1905652;73;21694;-91
2021/09/26 16:06:57;;;;;;;4.20;1.85;;;25.40;99.90;;;;;;1928829;73;21596;-89
2021/09/26 16:09:33;;;;;;;5.65;2.00;;;25.30;99.90;;;;;;1934881;73;21106;-91
2021/09/26 16:12:07;;;;;;;6.92;1.70;;;25.40;99.90;;;;;;1873414;74;21129;-86
2021/09/26 16:14:38;;;;;;;10.08;2.42;;;25.40;99.90;;;;;;1922347;73;21105;-89
2021/09/26 16:23:48;;;;;;;;;;;;;;;;;;;;;
2021/09/26 16:26:16;;;;;;;5.60;2.58;;;25.40;99.90;;;;;;1800245;78;21326;-90
2021/09/26 16:28:50;;;;;;;8.60;2.95;;;25.50;99.90;;;;;;1739592;81;21688;-89
2021/09/26 16:31:32;;;;;;;;;;;;;;;;;;;;;
2021/09/26 16:34:15;;;;;;;10.85;2.50;;;25.50;99.90;;;;;;1743695;80;21550;-88
2021/09/26 16:43:04;;;;;;;12.82;3.55;;;25.60;99.90;;;;;;1755512;79;21182;-89
2021/09/26 16:45:37;;;;;;;7.30;2.70;;;25.50;99.90;;;;;;1753458;79;21199;-89
2021/09/26 16:48:10;;;;;;;6.87;2.77;;;25.50;99.90;;;;;;1803700;77;21266;-88
2021/09/26 16:51:00;;;;;;;14.85;3.80;;;25.50;99.90;;;;;;1811513;78;21145;-89
2021/09/26 16:53:41;;;;;;;6.80;2.60;;;25.50;99.90;;;;;;1787531;78;21189;-89
2021/09/26 16:56:37;;;;;;;6.80;2.55;;;25.50;99.90;;;;;;1801475;78;21337;-89
2021/09/26 16:59:11;;;;;;;7.33;2.83;;;25.50;99.90;;;;;;1804068;77;21289;-89
2021/09/26 17:05:21;;;;;;;7.05;2.50;;;25.50;99.90;;;;;;1937333;72;21534;-90
2021/09/26 17:07:52;;;;;;;9.35;2.90;;;25.50;99.90;;;;;;1949706;72;21612;-90
2021/09/26 17:11:28;;;;;;;8.33;3.10;;;25.50;99.90;;;;;;1938068;72;21219;-90
2021/09/26 17:13:02;;;;;;;11.22;2.85;;;25.50;99.90;;;;;;1935842;72;21189;-89
2021/09/26 17:15:41;;;;;;;7.05;2.95;;;25.40;99.90;;;;;;1884698;74;21604;-88
2021/09/26 17:24:33;;;;;;;9.40;3.52;;;25.40;99.90;;;;;;1786161;78;21170;-88
2021/09/26 17:41:42;;;;;;;9.23;3.08;;;25.20;99.90;;;;;;1767948;78;21234;-90
2021/09/26 18:03:15;;;;;;;7.00;3.08;;;25.20;99.90;;;;;;1646107;85;21171;-89
2021/09/26 18:05:57;;;;;;;8.23;3.12;;;25.20;99.90;;;;;;1729093;80;21155;-90
2021/09/26 18:08:45;;;;;;;6.42;2.47;;;25.20;99.90;;;;;;1746854;76;21129;-88
2021/09/26 18:11:18;;;;;;;9.33;2.83;;;25.10;99.90;;;;;;1793277;78;21112;-89
2021/09/26 18:13:51;;;;;;;8.13;3.37;;;25.20;99.90;;;;;;1834346;77;21719;-92
2021/09/26 18:16:24;;;;;;;9.90;3.00;;;25.20;99.90;;;;;;1823186;76;21178;-91
2021/09/26 18:18:56;;;;;;;7.62;2.52;;;25.20;99.90;;;;;;1834706;74;21166;-90
2021/09/26 18:21:28;;;;;;;11.25;3.30;;;25.20;99.90;;;;;;1819053;75;21164;-90
2021/09/26 18:24:00;;;;;;;8.83;2.87;;;25.20;99.90;;;;;;1852377;74;21166;-89
2021/09/26 18:26:33;;;;;;;9.90;2.87;;;25.20;99.90;;;;;;1826404;75;21210;-92
2021/09/26 18:29:07;;;;;;;6.60;3.15;;;25.20;99.90;;;;;;1844701;74;21339;-91
2021/09/26 18:31:40;;;;;;;8.33;3.00;;;25.20;99.90;;;;;;1802165;77;21222;-92
2021/09/26 18:37:31;;;;;;;7.08;3.10;;;25.20;99.90;;;;;;1940963;71;21041;-92
2021/09/26 18:40:04;;;;;;;6.40;3.05;;;25.20;99.90;;;;;;1962174;71;21083;-90
2021/09/26 18:42:36;;;;;;;5.80;3.10;;;25.20;99.90;;;;;;1921574;72;21201;-91
2021/09/26 18:45:09;;;;;;;6.05;2.87;;;25.20;99.90;;;;;;1938647;73;21198;-90
2021/09/26 18:48:37;;;;;;;;;;;;;;;;;;;;;
2021/09/26 18:50:42;;;;;;;6.67;2.80;;;25.20;99.90;;;;;;1938443;71;21151;-90
2021/09/26 18:53:14;;;;;;;6.12;2.85;;;25.20;99.90;;;;;;1939568;73;21170;-89
2021/09/26 18:55:52;;;;;;;7.85;3.50;;;25.30;99.90;;;;;;1938472;73;21116;-91
2021/09/26 18:58:23;;;;;;;9.93;2.55;;;25.30;99.90;;;;;;1909777;73;21143;-89
2021/09/26 19:01:01;;;;;;;5.15;3.08;;;25.20;99.90;;;;;;1921149;73;21083;-90
2021/09/26 19:03:32;;;;;;;8.93;3.00;;;25.20;99.90;;;;;;1965208;72;21185;-90
2021/09/26 19:06:03;;;;;;;7.08;2.77;;;25.20;99.90;;;;;;1941620;72;21213;-90
2021/09/26 19:08:38;;;;;;;9.70;2.87;;;25.20;99.90;;;;;;1938638;72;21084;-90
2021/09/26 19:14:18;;;;;;;8.85;2.58;;;25.20;99.90;;;;;;1931011;73;21209;-88
2021/09/26 19:17:00;;;;;;;7.97;2.60;;;25.20;99.90;;;;;;1921784;72;21554;-90
2021/09/26 19:19:34;;;;;;;4.33;2.40;;;25.20;99.90;;;;;;1881361;74;21115;-91
2021/09/26 19:22:07;;;;;;;8.60;2.80;;;25.20;99.90;;;;;;1915935;73;21166;-90
2021/09/26 19:24:43;;;;;;;7.30;3.00;;;25.30;99.90;;;;;;1946035;72;21161;-90
2021/09/26 19:27:16;;;;;;;7.87;2.65;;;25.30;99.90;;;;;;1952563;72;21171;-90
2021/09/26 19:29:49;;;;;;;6.97;2.77;;;25.30;99.90;;;;;;1914866;74;21192;-91
2021/09/26 19:32:20;;;;;;;7.80;2.67;;;25.30;99.90;;;;;;1921436;72;21100;-88
2021/09/26 19:34:51;;;;;;;5.35;2.35;;;25.30;99.90;;;;;;1939581;73;21146;-91
2021/09/26 19:37:26;;;;;;;4.95;2.37;;;25.30;99.90;;;;;;1931821;72;21641;-92
2021/09/26 19:39:57;;;;;;;7.28;2.65;;;25.30;99.90;;;;;;1933671;72;21098;-88
2021/09/26 19:42:30;;;;;;;6.97;2.40;;;25.30;99.90;;;;;;1870307;75;21069;-90
2021/09/26 19:45:08;;;;;;;4.87;2.20;;;25.30;99.90;;;;;;1841958;74;22689;-90
2021/09/26 19:47:40;;;;;;;6.22;2.33;;;25.30;99.90;;;;;;1858244;76;21140;-90
2021/09/26 19:50:17;;;;;;;3.98;2.65;;;25.30;99.90;;;;;;1935938;72;21289;-90
2021/09/26 19:52:48;;;;;;;5.80;2.90;;;25.30;99.90;;;;;;1941694;72;21254;-89
2021/09/26 19:55:23;;;;;;;10.90;6.17;;;25.30;99.90;;;;;;1932338;73;21074;-87
2021/09/26 19:57:55;;;;;;;9.85;5.90;;;25.30;99.90;;;;;;1950007;72;21144;-91
2021/09/26 20:00:32;;;;;;;16.35;6.60;;;25.30;99.90;;;;;;1945440;72;21403;-90
2021/09/26 20:03:13;;;;;;;7.50;4.75;;;25.40;99.90;;;;;;1951508;72;21142;-90
2021/09/26 20:05:42;;;;;;;9.05;4.60;;;25.30;99.90;;;;;;1939386;73;21157;-89
2021/09/26 20:08:21;;;;;;;11.85;4.25;;;25.40;99.90;;;;;;1902680;73;21073;-90
2021/09/26 20:10:57;;;;;;;9.88;3.72;;;25.30;99.90;;;;;;1939685;73;21134;-90
2021/09/26 20:13:27;;;;;;;4.33;3.00;;;25.40;99.90;;;;;;1954142;72;21140;-91
2021/09/26 20:15:58;;;;;;;4.25;2.25;;;25.40;99.90;;;;;;1949235;72;21601;-91
2021/09/26 20:18:33;;;;;;;6.85;2.67;;;25.40;99.90;;;;;;1946303;72;21114;-89
2021/09/26 20:24:31;;;;;;;4.85;2.77;;;25.30;99.90;;;;;;1938092;72;21687;-90
2021/09/26 20:27:01;;;;;;;7.83;3.58;;;25.30;99.90;;;;;;1942929;72;21123;-90
2021/09/26 20:29:32;;;;;;;7.37;3.75;;;25.30;99.90;;;;;;1913116;73;21087;-88
2021/09/26 20:32:04;;;;;;;6.25;3.98;;;25.40;99.90;;;;;;1945670;72;21190;-88
2021/09/26 20:34:37;;;;;;;9.70;4.40;;;25.40;99.90;;;;;;1940537;72;21123;-89
2021/09/26 20:37:10;;;;;;;8.28;4.15;;;25.40;99.90;;;;;;1945065;72;21195;-88
2021/09/26 20:39:47;;;;;;;8.15;3.95;;;25.40;99.90;;;;;;1948397;73;21101;-89
2021/09/26 20:42:18;;;;;;;6.62;3.50;;;25.40;99.90;;;;;;1946529;72;21104;-89
2021/09/26 20:44:56;;;;;;;4.83;2.92;;;25.40;99.90;;;;;;1951937;71;21110;-89
2021/09/26 20:47:29;;;;;;;7.83;2.83;;;25.40;99.90;;;;;;1946160;72;21097;-90
2021/09/26 20:50:01;;;;;;;6.03;2.10;;;25.40;99.90;;;;;;1950572;72;21116;-88
2021/09/26 20:52:32;;;;;;;6.72;2.33;;;25.40;99.90;;;;;;1946627;72;21230;-90
2021/09/26 20:55:10;;;;;;;8.70;2.83;;;25.30;99.90;;;;;;1944657;73;21151;-88
2021/09/26 20:57:37;;;;;;;6.55;2.17;;;25.30;99.90;;;;;;1944513;72;21188;-88
2021/09/26 21:00:14;;;;;;;4.62;2.22;;;25.40;99.90;;;;;;1942230;72;21127;-89
2021/09/26 21:02:45;;;;;;;6.65;2.65;;;25.40;99.90;;;;;;1941753;72;21123;-91
2021/09/26 21:05:18;;;;;;;4.78;2.50;;;25.40;99.90;;;;;;1929567;73;21146;-90
2021/09/26 21:07:50;;;;;;;8.10;2.62;;;25.30;99.90;;;;;;1966897;73;21121;-87
2021/09/26 21:10:39;;;;;;;5.30;2.20;;;25.30;99.90;;;;;;1937435;73;21226;-89
2021/09/26 21:13:11;;;;;;;5.10;2.65;;;25.40;99.90;;;;;;1853147;75;21166;-93
2021/09/26 21:15:45;;;;;;;4.83;2.70;;;25.30;99.90;;;;;;1852423;76;21115;-90
2021/09/26 21:18:30;;;;;;;7.62;2.70;;;25.30;99.90;;;;;;1861544;75;21511;-89
2021/09/26 21:24:06;;;;;;;8.20;3.47;;;25.30;99.90;;;;;;1836331;76;21189;-89
2021/09/26 21:26:38;;;;;;;6.65;2.92;;;25.30;99.90;;;;;;1837843;77;21159;-88
2021/09/26 21:29:10;;;;;;;7.42;3.65;;;25.20;99.90;;;;;;1842313;76;21151;-89
2021/09/26 21:31:41;;;;;;;11.65;3.75;;;25.20;99.90;;;;;;1831282;77;21127;-90
2021/09/26 21:34:11;;;;;;;5.60;3.12;;;25.10;99.90;;;;;;1861311;76;21170;-89
2021/09/26 21:39:52;;;;;;;9.53;3.10;;;25.10;99.90;;;;;;1874448;73;21557;-89
2021/09/26 21:42:23;;;;;;;6.20;2.90;;;25.10;99.90;;;;;;1866605;76;21236;-89
2021/09/26 21:44:56;;;;;;;5.92;3.10;;;25.10;99.90;;;;;;1878204;75;21171;-89
2021/09/26 21:47:27;;;;;;;8.78;3.52;;;25.00;99.90;;;;;;1870236;75;21735;-89
2021/09/26 21:49:58;;;;;;;7.17;3.05;;;25.00;99.90;;;;;;1853980;75;21175;-88
2021/09/26 21:52:30;;;;;;;5.67;3.17;;;25.00;99.90;;;;;;1932375;73;21203;-89
2021/09/26 21:55:02;;;;;;;6.60;3.35;;;25.00;99.90;;;;;;1947778;72;21162;-89
2021/09/26 21:57:33;;;;;;;4.90;2.90;;;25.00;99.90;;;;;;1916845;73;21108;-88
2021/09/26 22:00:08;;;;;;;7.12;3.08;;;25.00;99.90;;;;;;1918019;73;21112;-88
2021/09/26 22:02:40;;;;;;;4.80;2.80;;;25.00;99.90;;;;;;1942600;73;21118;-89
2021/09/26 22:05:11;;;;;;;8.65;3.05;;;25.00;99.90;;;;;;1951433;72;21630;-89
2021/09/26 22:07:42;;;;;;;6.65;2.83;;;25.00;99.90;;;;;;1946905;73;21214;-89
2021/09/26 22:10:13;;;;;;;6.85;2.95;;;25.00;99.90;;;;;;1881337;75;21249;-89
2021/09/26 22:12:45;;;;;;;5.83;3.00;;;25.00;99.90;;;;;;1887326;75;21128;-90
2021/09/26 22:15:17;;;;;;;6.50;2.92;;;25.00;99.90;;;;;;1944765;72;21516;-89
2021/09/26 22:17:48;;;;;;;6.30;2.70;;;25.00;99.90;;;;;;1937437;72;21187;-90
2021/09/26 22:20:20;;;;;;;8.08;3.27;;;25.00;99.90;;;;;;1961364;72;21133;-89
2021/09/26 22:26:11;;;;;;;6.53;3.00;;;25.00;99.90;;;;;;1936140;72;21153;-89
2021/09/26 22:28:43;;;;;;;8.60;3.90;;;25.00;99.90;;;;;;1937992;72;21787;-89
2021/09/26 22:31:16;;;;;;;8.15;3.22;;;25.00;99.90;;;;;;1882675;74;21170;-90
2021/09/26 22:33:47;;;;;;;10.10;3.90;;;24.90;99.90;;;;;;1945785;72;21209;-89
2021/09/26 22:36:22;;;;;;;6.90;3.83;;;25.00;99.90;;;;;;1967873;72;21143;-89
2021/09/26 22:38:54;;;;;;;11.43;4.22;;;25.00;99.90;;;;;;1942812;72;21127;-90
2021/09/26 22:41:25;;;;;;;7.50;3.58;;;25.00;99.90;;;;;;1870888;75;21197;-89
2021/09/26 22:43:57;;;;;;;8.80;4.22;;;25.00;99.90;;;;;;1867260;75;21623;-88
2021/09/26 22:46:28;;;;;;;10.75;4.70;;;25.00;99.90;;;;;;1882944;75;21204;-91
2021/09/26 22:49:01;;;;;;;10.28;4.87;;;25.00;99.90;;;;;;1870346;75;21170;-89
2021/09/26 22:51:32;;;;;;;8.63;4.25;;;25.00;99.90;;;;;;1869309;75;21144;-90
2021/09/26 22:54:03;;;;;;;10.93;4.05;;;25.00;99.90;;;;;;1881381;74;21180;-90
2021/09/26 22:56:34;;;;;;;8.55;4.03;;;25.00;99.90;;;;;;1918853;73;21113;-91
2021/09/26 22:59:05;;;;;;;12.93;4.62;;;25.00;99.90;;;;;;1893112;75;21174;-91
2021/09/26 23:01:41;;;;;;;7.47;4.22;;;25.00;99.90;;;;;;1935560;72;21180;-89
2021/09/26 23:04:14;;;;;;;10.55;4.33;;;25.00;99.90;;;;;;1950397;73;21731;-89
2021/09/26 23:06:45;;;;;;;12.23;4.83;;;25.00;99.90;;;;;;1969114;72;21085;-89
2021/09/26 23:09:17;;;;;;;8.08;5.00;;;25.00;99.90;;;;;;1952550;72;21069;-91
2021/09/26 23:11:48;;;;;;;15.50;5.60;;;25.00;99.90;;;;;;1951239;72;21701;-89
2021/09/26 23:14:20;;;;;;;12.53;5.90;;;25.00;99.90;;;;;;1938823;72;21105;-90
2021/09/26 23:16:51;;;;;;;9.35;4.67;;;25.00;99.90;;;;;;1954043;73;21136;-90
2021/09/26 23:19:22;;;;;;;12.00;5.75;;;25.10;99.90;;;;;;1933843;72;21144;-89
2021/09/26 23:21:52;;;;;;;10.53;5.08;;;25.10;99.90;;;;;;1941155;72;21117;-88
2021/09/26 23:24:26;;;;;;;8.10;4.78;;;25.10;99.90;;;;;;1958622;73;21160;-89
2021/09/26 23:26:56;;;;;;;8.18;5.00;;;25.10;99.90;;;;;;1962468;72;21103;-88
2021/09/26 23:29:30;;;;;;;12.73;5.55;;;25.10;99.90;;;;;;1959105;72;21237;-90
2021/09/26 23:31:59;;;;;;;12.00;5.67;;;25.10;99.90;;;;;;1943563;72;21203;-90
2021/09/26 23:34:30;;;;;;;15.03;6.08;;;25.10;99.90;;;;;;1942374;72;21127;-91
2021/09/26 23:37:01;;;;;;;7.72;5.05;;;25.10;99.90;;;;;;1938611;73;21595;-90
2021/09/26 23:39:33;;;;;;;9.05;5.42;;;25.10;99.90;;;;;;1941751;73;21117;-90
2021/09/26 23:49:06;;;;;;;10.93;5.33;;;25.10;99.90;;;;;;1905804;74;21225;-90
2021/09/26 23:51:37;;;;;;;9.70;6.37;;;25.10;99.90;;;;;;1922318;72;21483;-90
2021/09/26 23:54:10;;;;;;;14.10;6.28;;;25.20;99.90;;;;;;1940364;73;21182;-90
2021/09/26 23:56:45;;;;;;;13.90;6.37;;;25.20;99.90;;;;;;1935748;72;21699;-89
2021/09/26 23:59:16;;;;;;;9.63;5.47;;;25.20;99.90;;;;;;1928293;73;21107;-89
